sensor_id;sensor_type;location;lat;lon;timestamp;P1;durP1;ratioP1;P2;durP2;ratioP2
56043;SDS011;41912;51.022;3.664;2024-03-23T00:53:07;25.85;;;8.00;;
56043;SDS011;41912;51.022;3.664;2024-03-23T00:55:33;23.15;;;8.25;;
56043;SDS011;41912;51.022;3.664;2024-03-23T00:57:59;25.75;;;8.80;;
56043;SDS011;41912;51.022;3.664;2024-03-23T01:00:24;23.65;;;8.18;;
56043;SDS011;41912;51.022;3.664;2024-03-23T01:02:50;27.58;;;8.05;;
56043;SDS011;41912;51.022;3.664;2024-03-23T01:05:16;32.20;;;8.50;;
56043;SDS011;41912;51.022;3.664;2024-03-23T01:07:41;18.55;;;7.28;;
56043;SDS011;41912;51.022;3.664;2024-03-23T01:10:07;26.50;;;8.98;;
56043;SDS011;41912;51.022;3.664;2024-03-23T01:12:33;23.00;;;7.63;;
56043;SDS011;41912;51.022;3.664;2024-03-23T01:14:58;26.30;;;8.00;;
56043;SDS011;41912;51.022;3.664;2024-03-23T01:17:24;28.50;;;9.43;;
56043;SDS011;41912;51.022;3.664;2024-03-23T01:19:49;24.70;;;7.93;;
56043;SDS011;41912;51.022;3.664;2024-03-23T01:22:15;29.10;;;7.93;;
56043;SDS011;41912;51.022;3.664;2024-03-23T01:24:40;30.10;;;8.35;;
56043;SDS011;41912;51.022;3.664;2024-03-23T01:27:06;23.10;;;8.38;;
56043;SDS011;41912;51.022;3.664;2024-03-23T01:29:32;23.40;;;7.80;;
56043;SDS011;41912;51.022;3.664;2024-03-23T01:31:57;19.10;;;7.45;;
56043;SDS011;41912;51.022;3.664;2024-03-23T01:34:23;23.45;;;7.75;;
56043;SDS011;41912;51.022;3.664;2024-03-23T01:36:50;23.60;;;8.70;;
56043;SDS011;41912;51.022;3.664;2024-03-23T01:39:15;27.20;;;8.48;;
56043;SDS011;41912;51.022;3.664;2024-03-23T01:41:41;22.50;;;7.22;;
56043;SDS011;41912;51.022;3.664;2024-03-23T01:44:08;27.55;;;8.50;;
56043;SDS011;41912;51.022;3.664;2024-03-23T01:46:37;21.85;;;7.65;;
56043;SDS011;41912;51.022;3.664;2024-03-23T01:49:06;19.55;;;7.95;;
56043;SDS011;41912;51.022;3.664;2024-03-23T01:51:33;23.50;;;7.47;;
56043;SDS011;41912;51.022;3.664;2024-03-23T01:53:59;29.05;;;8.23;;
56043;SDS011;41912;51.022;3.664;2024-03-23T01:56:28;24.80;;;7.90;;
56043;SDS011;41912;51.022;3.664;2024-03-23T01:59:03;26.52;;;6.63;;
56043;SDS011;41912;51.022;3.664;2024-03-23T02:01:30;23.67;;;6.88;;
56043;SDS011;41912;51.022;3.664;2024-03-23T02:03:56;24.02;;;6.80;;
56043;SDS011;41912;51.022;3.664;2024-03-23T02:06:22;22.25;;;7.15;;
56043;SDS011;41912;51.022;3.664;2024-03-23T02:08:49;16.85;;;5.80;;
56043;SDS011;41912;51.022;3.664;2024-03-23T02:11:15;24.88;;;7.22;;
56043;SDS011;41912;51.022;3.664;2024-03-23T02:13:40;17.30;;;6.60;;
56043;SDS011;41912;51.022;3.664;2024-03-23T02:16:06;18.27;;;5.75;;
56043;SDS011;41912;51.022;3.664;2024-03-23T02:18:35;16.88;;;7.10;;
56043;SDS011;41912;51.022;3.664;2024-03-23T02:21:00;22.77;;;7.00;;
56043;SDS011;41912;51.022;3.664;2024-03-23T02:23:26;27.50;;;6.55;;
56043;SDS011;41912;51.022;3.664;2024-03-23T02:25:52;15.15;;;5.40;;
56043;SDS011;41912;51.022;3.664;2024-03-23T02:28:20;17.48;;;5.47;;
56043;SDS011;41912;51.022;3.664;2024-03-23T02:30:47;32.38;;;6.07;;
56043;SDS011;41912;51.022;3.664;2024-03-23T02:33:13;21.35;;;6.60;;
56043;SDS011;41912;51.022;3.664;2024-03-23T02:35:39;18.85;;;4.97;;
56043;SDS011;41912;51.022;3.664;2024-03-23T02:38:05;26.70;;;5.28;;
56043;SDS011;41912;51.022;3.664;2024-03-23T02:40:30;13.52;;;5.18;;
56043;SDS011;41912;51.022;3.664;2024-03-23T02:42:56;20.02;;;5.65;;
56043;SDS011;41912;51.022;3.664;2024-03-23T02:45:21;23.73;;;5.60;;
56043;SDS011;41912;51.022;3.664;2024-03-23T02:47:47;22.45;;;5.80;;
56043;SDS011;41912;51.022;3.664;2024-03-23T02:50:17;16.27;;;5.00;;
56043;SDS011;41912;51.022;3.664;2024-03-23T02:52:45;16.33;;;5.93;;
56043;SDS011;41912;51.022;3.664;2024-03-23T02:55:11;23.77;;;6.00;;
56043;SDS011;41912;51.022;3.664;2024-03-23T02:57:37;16.67;;;5.28;;
56043;SDS011;41912;51.022;3.664;2024-03-23T03:00:03;22.30;;;5.63;;
56043;SDS011;41912;51.022;3.664;2024-03-23T03:02:30;23.17;;;5.68;;
56043;SDS011;41912;51.022;3.664;2024-03-23T03:04:56;19.42;;;5.15;;
56043;SDS011;41912;51.022;3.664;2024-03-23T03:07:21;17.50;;;5.25;;
56043;SDS011;41912;51.022;3.664;2024-03-23T03:09:47;17.73;;;5.28;;
56043;SDS011;41912;51.022;3.664;2024-03-23T03:12:12;20.60;;;5.22;;
56043;SDS011;41912;51.022;3.664;2024-03-23T03:14:38;14.77;;;4.50;;
56043;SDS011;41912;51.022;3.664;2024-03-23T03:17:03;19.40;;;5.00;;
56043;SDS011;41912;51.022;3.664;2024-03-23T03:19:30;23.17;;;5.82;;
56043;SDS011;41912;51.022;3.664;2024-03-23T03:21:55;17.88;;;5.68;;
56043;SDS011;41912;51.022;3.664;2024-03-23T03:24:21;17.33;;;4.90;;
56043;SDS011;41912;51.022;3.664;2024-03-23T03:26:47;16.52;;;5.70;;
56043;SDS011;41912;51.022;3.664;2024-03-23T03:29:12;17.65;;;5.88;;
56043;SDS011;41912;51.022;3.664;2024-03-23T03:31:41;12.25;;;4.75;;
56043;SDS011;41912;51.022;3.664;2024-03-23T03:34:08;21.90;;;5.35;;
56043;SDS011;41912;51.022;3.664;2024-03-23T03:36:33;16.23;;;4.78;;
56043;SDS011;41912;51.022;3.664;2024-03-23T03:38:59;18.48;;;5.53;;
56043;SDS011;41912;51.022;3.664;2024-03-23T03:41:24;18.95;;;5.32;;
56043;SDS011;41912;51.022;3.664;2024-03-23T03:43:50;17.85;;;5.70;;
56043;SDS011;41912;51.022;3.664;2024-03-23T03:46:16;15.00;;;4.68;;
56043;SDS011;41912;51.022;3.664;2024-03-23T03:48:42;20.83;;;4.75;;
56043;SDS011;41912;51.022;3.664;2024-03-23T03:51:10;17.27;;;4.70;;
56043;SDS011;41912;51.022;3.664;2024-03-23T03:53:35;16.00;;;4.45;;
56043;SDS011;41912;51.022;3.664;2024-03-23T03:56:01;13.98;;;4.32;;
56043;SDS011;41912;51.022;3.664;2024-03-23T03:58:27;18.55;;;4.68;;
56043;SDS011;41912;51.022;3.664;2024-03-23T04:00:53;16.25;;;4.55;;
56043;SDS011;41912;51.022;3.664;2024-03-23T04:03:19;20.55;;;4.82;;
56043;SDS011;41912;51.022;3.664;2024-03-23T04:05:50;13.68;;;4.60;;
56043;SDS011;41912;51.022;3.664;2024-03-23T04:08:19;9.52;;;3.70;;
56043;SDS011;41912;51.022;3.664;2024-03-23T04:10:45;17.27;;;3.90;;
56043;SDS011;41912;51.022;3.664;2024-03-23T04:13:10;11.98;;;4.03;;
56043;SDS011;41912;51.022;3.664;2024-03-23T04:15:36;16.17;;;4.38;;
56043;SDS011;41912;51.022;3.664;2024-03-23T04:18:02;18.02;;;4.55;;
56043;SDS011;41912;51.022;3.664;2024-03-23T04:20:28;14.95;;;3.38;;
56043;SDS011;41912;51.022;3.664;2024-03-23T04:22:53;16.27;;;3.40;;
56043;SDS011;41912;51.022;3.664;2024-03-23T04:25:19;14.95;;;3.78;;
56043;SDS011;41912;51.022;3.664;2024-03-23T04:27:45;14.02;;;3.40;;
56043;SDS011;41912;51.022;3.664;2024-03-23T04:30:11;13.15;;;3.60;;
56043;SDS011;41912;51.022;3.664;2024-03-23T04:32:37;17.85;;;3.90;;
56043;SDS011;41912;51.022;3.664;2024-03-23T04:35:03;15.77;;;3.78;;
56043;SDS011;41912;51.022;3.664;2024-03-23T04:37:34;19.60;;;4.63;;
56043;SDS011;41912;51.022;3.664;2024-03-23T04:40:05;11.45;;;3.67;;
56043;SDS011;41912;51.022;3.664;2024-03-23T04:42:32;12.63;;;3.83;;
56043;SDS011;41912;51.022;3.664;2024-03-23T04:44:58;20.45;;;4.20;;
56043;SDS011;41912;51.022;3.664;2024-03-23T04:47:23;15.02;;;3.30;;
56043;SDS011;41912;51.022;3.664;2024-03-23T04:49:49;24.25;;;3.85;;
56043;SDS011;41912;51.022;3.664;2024-03-23T04:52:15;16.63;;;4.13;;
56043;SDS011;41912;51.022;3.664;2024-03-23T04:54:41;20.60;;;3.92;;
56043;SDS011;41912;51.022;3.664;2024-03-23T04:57:10;22.05;;;3.33;;
56043;SDS011;41912;51.022;3.664;2024-03-23T04:59:36;25.75;;;4.30;;
56043;SDS011;41912;51.022;3.664;2024-03-23T05:02:01;18.92;;;3.58;;
56043;SDS011;41912;51.022;3.664;2024-03-23T05:04:27;26.92;;;4.18;;
56043;SDS011;41912;51.022;3.664;2024-03-23T05:06:53;14.73;;;3.67;;
56043;SDS011;41912;51.022;3.664;2024-03-23T05:09:19;19.77;;;3.78;;
56043;SDS011;41912;51.022;3.664;2024-03-23T05:11:45;18.42;;;3.08;;
56043;SDS011;41912;51.022;3.664;2024-03-23T05:14:11;19.92;;;2.97;;
56043;SDS011;41912;51.022;3.664;2024-03-23T05:16:38;16.90;;;2.80;;
56043;SDS011;41912;51.022;3.664;2024-03-23T05:19:04;12.38;;;3.00;;
56043;SDS011;41912;51.022;3.664;2024-03-23T05:21:29;14.70;;;2.75;;
56043;SDS011;41912;51.022;3.664;2024-03-23T05:23:55;16.55;;;2.72;;
56043;SDS011;41912;51.022;3.664;2024-03-23T05:26:21;19.13;;;3.47;;
56043;SDS011;41912;51.022;3.664;2024-03-23T05:28:47;17.58;;;2.42;;
56043;SDS011;41912;51.022;3.664;2024-03-23T05:31:22;18.60;;;2.78;;
56043;SDS011;41912;51.022;3.664;2024-03-23T05:33:48;18.42;;;3.35;;
56043;SDS011;41912;51.022;3.664;2024-03-23T05:36:14;21.42;;;3.00;;
56043;SDS011;41912;51.022;3.664;2024-03-23T05:38:40;13.73;;;2.38;;
56043;SDS011;41912;51.022;3.664;2024-03-23T05:41:05;18.95;;;3.97;;
56043;SDS011;41912;51.022;3.664;2024-03-23T05:43:31;13.48;;;3.22;;
56043;SDS011;41912;51.022;3.664;2024-03-23T05:45:56;21.90;;;4.22;;
56043;SDS011;41912;51.022;3.664;2024-03-23T05:48:23;21.67;;;3.60;;
56043;SDS011;41912;51.022;3.664;2024-03-23T05:50:49;23.05;;;3.67;;
56043;SDS011;41912;51.022;3.664;2024-03-23T05:53:15;11.38;;;2.83;;
56043;SDS011;41912;51.022;3.664;2024-03-23T05:55:42;11.75;;;2.42;;
56043;SDS011;41912;51.022;3.664;2024-03-23T05:58:07;29.92;;;3.63;;
56043;SDS011;41912;51.022;3.664;2024-03-23T06:00:33;14.32;;;2.92;;
56043;SDS011;41912;51.022;3.664;2024-03-23T06:02:59;13.88;;;2.58;;
56043;SDS011;41912;51.022;3.664;2024-03-23T06:05:24;13.73;;;2.42;;
56043;SDS011;41912;51.022;3.664;2024-03-23T06:07:50;17.00;;;3.00;;
56043;SDS011;41912;51.022;3.664;2024-03-23T06:10:16;20.42;;;3.20;;
56043;SDS011;41912;51.022;3.664;2024-03-23T06:12:41;21.15;;;3.70;;
56043;SDS011;41912;51.022;3.664;2024-03-23T06:15:07;16.65;;;3.70;;
56043;SDS011;41912;51.022;3.664;2024-03-23T06:17:36;20.00;;;4.22;;
56043;SDS011;41912;51.022;3.664;2024-03-23T06:20:02;19.60;;;2.95;;
56043;SDS011;41912;51.022;3.664;2024-03-23T06:22:28;19.67;;;3.03;;
56043;SDS011;41912;51.022;3.664;2024-03-23T06:24:54;17.25;;;3.22;;
56043;SDS011;41912;51.022;3.664;2024-03-23T06:27:20;13.40;;;3.00;;
56043;SDS011;41912;51.022;3.664;2024-03-23T06:29:45;24.65;;;3.75;;
56043;SDS011;41912;51.022;3.664;2024-03-23T06:32:11;14.55;;;3.25;;
56043;SDS011;41912;51.022;3.664;2024-03-23T06:34:36;22.33;;;4.07;;
56043;SDS011;41912;51.022;3.664;2024-03-23T06:37:02;17.50;;;3.55;;
56043;SDS011;41912;51.022;3.664;2024-03-23T06:39:28;17.15;;;3.25;;
56043;SDS011;41912;51.022;3.664;2024-03-23T06:41:54;15.35;;;2.88;;
56043;SDS011;41912;51.022;3.664;2024-03-23T06:44:20;16.80;;;3.83;;
56043;SDS011;41912;51.022;3.664;2024-03-23T06:46:46;16.33;;;3.67;;
56043;SDS011;41912;51.022;3.664;2024-03-23T06:49:13;15.50;;;4.32;;
56043;SDS011;41912;51.022;3.664;2024-03-23T06:51:39;14.48;;;3.60;;
56043;SDS011;41912;51.022;3.664;2024-03-23T06:54:05;22.80;;;3.78;;
56043;SDS011;41912;51.022;3.664;2024-03-23T06:56:31;18.27;;;4.88;;
56043;SDS011;41912;51.022;3.664;2024-03-23T06:58:57;23.65;;;5.05;;
56043;SDS011;41912;51.022;3.664;2024-03-23T07:01:23;19.92;;;3.95;;
56043;SDS011;41912;51.022;3.664;2024-03-23T07:03:49;21.25;;;3.80;;
56043;SDS011;41912;51.022;3.664;2024-03-23T07:06:14;19.20;;;4.00;;
56043;SDS011;41912;51.022;3.664;2024-03-23T07:08:40;19.70;;;5.75;;
56043;SDS011;41912;51.022;3.664;2024-03-23T07:11:06;31.40;;;6.10;;
56043;SDS011;41912;51.022;3.664;2024-03-23T07:13:31;27.90;;;7.28;;
56043;SDS011;41912;51.022;3.664;2024-03-23T07:15:57;22.60;;;9.35;;
56043;SDS011;41912;51.022;3.664;2024-03-23T07:18:24;31.08;;;11.07;;
56043;SDS011;41912;51.022;3.664;2024-03-23T07:20:57;31.02;;;14.68;;
56043;SDS011;41912;51.022;3.664;2024-03-23T07:23:23;44.75;;;14.60;;
56043;SDS011;41912;51.022;3.664;2024-03-23T07:26:01;31.00;;;13.05;;
56043;SDS011;41912;51.022;3.664;2024-03-23T07:28:29;34.88;;;13.93;;
56043;SDS011;41912;51.022;3.664;2024-03-23T07:31:03;34.25;;;13.65;;
56043;SDS011;41912;51.022;3.664;2024-03-23T07:33:41;32.28;;;12.02;;
56043;SDS011;41912;51.022;3.664;2024-03-23T07:36:08;28.45;;;9.10;;
56043;SDS011;41912;51.022;3.664;2024-03-23T07:38:33;22.60;;;7.72;;
56043;SDS011;41912;51.022;3.664;2024-03-23T07:41:05;22.75;;;7.13;;
56043;SDS011;41912;51.022;3.664;2024-03-23T07:43:37;25.20;;;6.20;;
56043;SDS011;41912;51.022;3.664;2024-03-23T07:46:03;24.38;;;6.65;;
56043;SDS011;41912;51.022;3.664;2024-03-23T07:48:29;21.42;;;5.35;;
56043;SDS011;41912;51.022;3.664;2024-03-23T07:53:35;17.15;;;4.93;;
56043;SDS011;41912;51.022;3.664;2024-03-23T07:56:03;20.00;;;4.95;;
56043;SDS011;41912;51.022;3.664;2024-03-23T07:58:33;21.55;;;5.70;;
56043;SDS011;41912;51.022;3.664;2024-03-23T08:01:09;13.07;;;3.53;;
56043;SDS011;41912;51.022;3.664;2024-03-23T08:03:36;20.17;;;3.58;;
56043;SDS011;41912;51.022;3.664;2024-03-23T08:06:12;11.85;;;3.63;;
56043;SDS011;41912;51.022;3.664;2024-03-23T08:08:39;20.20;;;3.38;;
56043;SDS011;41912;51.022;3.664;2024-03-23T08:11:06;14.98;;;2.95;;
56043;SDS011;41912;51.022;3.664;2024-03-23T08:13:32;13.68;;;3.08;;
56043;SDS011;41912;51.022;3.664;2024-03-23T08:15:58;19.63;;;3.53;;
56043;SDS011;41912;51.022;3.664;2024-03-23T08:18:24;19.40;;;3.13;;
56043;SDS011;41912;51.022;3.664;2024-03-23T08:20:57;15.55;;;3.25;;
56043;SDS011;41912;51.022;3.664;2024-03-23T08:25:49;23.30;;;3.72;;
56043;SDS011;41912;51.022;3.664;2024-03-23T08:28:15;17.25;;;3.25;;
56043;SDS011;41912;51.022;3.664;2024-03-23T08:30:40;14.15;;;2.53;;
56043;SDS011;41912;51.022;3.664;2024-03-23T08:33:06;20.50;;;2.90;;
56043;SDS011;41912;51.022;3.664;2024-03-23T08:35:31;16.60;;;2.45;;
56043;SDS011;41912;51.022;3.664;2024-03-23T08:37:57;10.23;;;2.70;;
56043;SDS011;41912;51.022;3.664;2024-03-23T08:40:22;14.77;;;2.53;;
56043;SDS011;41912;51.022;3.664;2024-03-23T08:42:48;10.38;;;2.50;;
56043;SDS011;41912;51.022;3.664;2024-03-23T08:45:14;16.85;;;3.00;;
56043;SDS011;41912;51.022;3.664;2024-03-23T08:47:39;17.35;;;2.80;;
56043;SDS011;41912;51.022;3.664;2024-03-23T08:50:05;14.65;;;2.80;;
56043;SDS011;41912;51.022;3.664;2024-03-23T08:52:31;13.63;;;2.65;;
56043;SDS011;41912;51.022;3.664;2024-03-23T08:54:57;20.73;;;2.70;;
56043;SDS011;41912;51.022;3.664;2024-03-23T08:57:23;14.70;;;2.60;;
56043;SDS011;41912;51.022;3.664;2024-03-23T08:59:49;15.00;;;2.80;;
56043;SDS011;41912;51.022;3.664;2024-03-23T09:02:15;8.85;;;2.67;;
56043;SDS011;41912;51.022;3.664;2024-03-23T09:04:40;15.40;;;2.72;;
56043;SDS011;41912;51.022;3.664;2024-03-23T09:07:06;16.75;;;2.58;;
56043;SDS011;41912;51.022;3.664;2024-03-23T09:09:32;15.32;;;2.65;;
56043;SDS011;41912;51.022;3.664;2024-03-23T09:11:57;12.80;;;2.88;;
56043;SDS011;41912;51.022;3.664;2024-03-23T09:14:23;10.23;;;2.33;;
56043;SDS011;41912;51.022;3.664;2024-03-23T09:16:51;11.85;;;2.33;;
56043;SDS011;41912;51.022;3.664;2024-03-23T09:19:17;10.30;;;2.20;;
56043;SDS011;41912;51.022;3.664;2024-03-23T09:21:43;13.48;;;2.92;;
56043;SDS011;41912;51.022;3.664;2024-03-23T09:24:09;15.02;;;2.05;;
56043;SDS011;41912;51.022;3.664;2024-03-23T09:26:34;10.48;;;2.67;;
56043;SDS011;41912;51.022;3.664;2024-03-23T09:29:00;9.93;;;3.05;;
56043;SDS011;41912;51.022;3.664;2024-03-23T09:31:25;23.52;;;5.28;;
56043;SDS011;41912;51.022;3.664;2024-03-23T09:33:51;22.50;;;5.20;;
56043;SDS011;41912;51.022;3.664;2024-03-23T09:36:16;32.78;;;5.10;;
56043;SDS011;41912;51.022;3.664;2024-03-23T09:38:42;18.98;;;5.15;;
56043;SDS011;41912;51.022;3.664;2024-03-23T09:41:08;15.82;;;3.78;;
56043;SDS011;41912;51.022;3.664;2024-03-23T09:43:34;11.02;;;3.22;;
56043;SDS011;41912;51.022;3.664;2024-03-23T09:46:01;18.38;;;4.10;;
56043;SDS011;41912;51.022;3.664;2024-03-23T09:48:27;13.07;;;3.40;;
56043;SDS011;41912;51.022;3.664;2024-03-23T09:50:53;16.05;;;3.30;;
56043;SDS011;41912;51.022;3.664;2024-03-23T09:53:19;17.05;;;3.85;;
56043;SDS011;41912;51.022;3.664;2024-03-23T09:55:44;16.60;;;3.10;;
56043;SDS011;41912;51.022;3.664;2024-03-23T09:58:13;11.80;;;3.35;;
56043;SDS011;41912;51.022;3.664;2024-03-23T10:00:41;12.93;;;3.65;;
56043;SDS011;41912;51.022;3.664;2024-03-23T10:03:07;16.85;;;4.25;;
56043;SDS011;41912;51.022;3.664;2024-03-23T10:05:33;19.23;;;4.57;;
56043;SDS011;41912;51.022;3.664;2024-03-23T10:07:59;12.65;;;5.05;;
56043;SDS011;41912;51.022;3.664;2024-03-23T10:13:07;17.85;;;5.20;;
56043;SDS011;41912;51.022;3.664;2024-03-23T10:15:33;17.17;;;5.85;;
56043;SDS011;41912;51.022;3.664;2024-03-23T10:23:39;18.95;;;4.78;;
56043;SDS011;41912;51.022;3.664;2024-03-23T10:26:19;16.45;;;5.30;;
56043;SDS011;41912;51.022;3.664;2024-03-23T10:28:57;13.38;;;4.55;;
56043;SDS011;41912;51.022;3.664;2024-03-23T10:31:32;12.38;;;3.65;;
56043;SDS011;41912;51.022;3.664;2024-03-23T10:33:58;15.20;;;3.50;;
56043;SDS011;41912;51.022;3.664;2024-03-23T10:36:25;13.65;;;3.90;;
56043;SDS011;41912;51.022;3.664;2024-03-23T10:38:51;11.50;;;4.18;;
56043;SDS011;41912;51.022;3.664;2024-03-23T10:41:19;11.38;;;3.45;;
56043;SDS011;41912;51.022;3.664;2024-03-23T10:43:45;16.95;;;4.00;;
56043;SDS011;41912;51.022;3.664;2024-03-23T10:46:12;15.93;;;3.40;;
56043;SDS011;41912;51.022;3.664;2024-03-23T10:48:38;12.43;;;3.17;;
56043;SDS011;41912;51.022;3.664;2024-03-23T10:51:07;11.02;;;2.70;;
56043;SDS011;41912;51.022;3.664;2024-03-23T10:53:34;15.60;;;4.30;;
56043;SDS011;41912;51.022;3.664;2024-03-23T10:56:02;10.93;;;2.60;;
56043;SDS011;41912;51.022;3.664;2024-03-23T10:58:31;12.52;;;3.08;;
56043;SDS011;41912;51.022;3.664;2024-03-23T11:01:06;10.10;;;2.88;;
56043;SDS011;41912;51.022;3.664;2024-03-23T11:03:38;9.35;;;2.72;;
56043;SDS011;41912;51.022;3.664;2024-03-23T11:06:05;11.88;;;3.20;;
56043;SDS011;41912;51.022;3.664;2024-03-23T11:11:13;15.40;;;3.20;;
56043;SDS011;41912;51.022;3.664;2024-03-23T11:13:39;10.15;;;3.53;;
56043;SDS011;41912;51.022;3.664;2024-03-23T11:18:41;16.33;;;3.63;;
56043;SDS011;41912;51.022;3.664;2024-03-23T11:21:07;12.45;;;2.22;;
56043;SDS011;41912;51.022;3.664;2024-03-23T11:23:33;19.92;;;2.75;;
56043;SDS011;41912;51.022;3.664;2024-03-23T11:25:58;10.82;;;2.13;;
56043;SDS011;41912;51.022;3.664;2024-03-23T11:28:24;6.32;;;2.38;;
56043;SDS011;41912;51.022;3.664;2024-03-23T11:30:50;10.30;;;2.42;;
56043;SDS011;41912;51.022;3.664;2024-03-23T11:33:15;13.15;;;2.92;;
56043;SDS011;41912;51.022;3.664;2024-03-23T11:35:41;14.05;;;2.55;;
56043;SDS011;41912;51.022;3.664;2024-03-23T11:38:08;11.43;;;3.05;;
56043;SDS011;41912;51.022;3.664;2024-03-23T11:40:34;10.80;;;3.22;;
56043;SDS011;41912;51.022;3.664;2024-03-23T11:43:03;13.35;;;3.10;;
56043;SDS011;41912;51.022;3.664;2024-03-23T11:45:33;13.32;;;2.58;;
56043;SDS011;41912;51.022;3.664;2024-03-23T11:50:33;13.25;;;2.55;;
56043;SDS011;41912;51.022;3.664;2024-03-23T11:53:06;17.50;;;3.08;;
56043;SDS011;41912;51.022;3.664;2024-03-23T11:55:50;10.60;;;2.67;;
56043;SDS011;41912;51.022;3.664;2024-03-23T11:58:18;12.43;;;2.80;;
56043;SDS011;41912;51.022;3.664;2024-03-23T12:00:51;11.63;;;2.40;;
56043;SDS011;41912;51.022;3.664;2024-03-23T12:03:24;12.95;;;2.40;;
56043;SDS011;41912;51.022;3.664;2024-03-23T12:05:54;15.35;;;3.50;;
56043;SDS011;41912;51.022;3.664;2024-03-23T12:08:21;7.60;;;2.03;;
56043;SDS011;41912;51.022;3.664;2024-03-23T12:11:13;8.48;;;1.73;;
56043;SDS011;41912;51.022;3.664;2024-03-23T12:13:43;8.38;;;2.00;;
56043;SDS011;41912;51.022;3.664;2024-03-23T12:16:17;7.07;;;1.80;;
56043;SDS011;41912;51.022;3.664;2024-03-23T12:18:46;7.93;;;2.38;;
56043;SDS011;41912;51.022;3.664;2024-03-23T12:21:14;6.35;;;2.20;;
56043;SDS011;41912;51.022;3.664;2024-03-23T12:23:40;7.72;;;2.47;;
56043;SDS011;41912;51.022;3.664;2024-03-23T12:26:06;8.30;;;1.90;;
56043;SDS011;41912;51.022;3.664;2024-03-23T12:28:32;8.57;;;2.20;;
56043;SDS011;41912;51.022;3.664;2024-03-23T12:30:58;7.78;;;2.03;;
56043;SDS011;41912;51.022;3.664;2024-03-23T12:33:24;10.88;;;2.28;;
56043;SDS011;41912;51.022;3.664;2024-03-23T12:35:50;10.57;;;2.00;;
56043;SDS011;41912;51.022;3.664;2024-03-23T12:38:16;7.55;;;2.30;;
56043;SDS011;41912;51.022;3.664;2024-03-23T12:40:46;8.40;;;2.25;;
56043;SDS011;41912;51.022;3.664;2024-03-23T12:43:13;8.05;;;2.00;;
56043;SDS011;41912;51.022;3.664;2024-03-23T12:45:39;8.52;;;2.30;;
56043;SDS011;41912;51.022;3.664;2024-03-23T12:48:04;11.02;;;3.10;;
56043;SDS011;41912;51.022;3.664;2024-03-23T12:50:30;11.25;;;2.72;;
56043;SDS011;41912;51.022;3.664;2024-03-23T12:52:56;12.07;;;2.70;;
56043;SDS011;41912;51.022;3.664;2024-03-23T12:55:21;10.52;;;3.60;;
56043;SDS011;41912;51.022;3.664;2024-03-23T12:57:47;15.38;;;3.92;;
56043;SDS011;41912;51.022;3.664;2024-03-23T13:00:13;12.30;;;3.75;;
56043;SDS011;41912;51.022;3.664;2024-03-23T13:02:40;10.75;;;2.85;;
56043;SDS011;41912;51.022;3.664;2024-03-23T13:05:06;12.85;;;2.95;;
56043;SDS011;41912;51.022;3.664;2024-03-23T13:07:34;10.35;;;2.60;;
56043;SDS011;41912;51.022;3.664;2024-03-23T13:10:00;11.27;;;2.30;;
56043;SDS011;41912;51.022;3.664;2024-03-23T13:12:26;7.22;;;2.42;;
56043;SDS011;41912;51.022;3.664;2024-03-23T13:14:51;13.75;;;2.40;;
56043;SDS011;41912;51.022;3.664;2024-03-23T13:17:17;14.18;;;2.45;;
56043;SDS011;41912;51.022;3.664;2024-03-23T13:19:43;13.68;;;2.80;;
56043;SDS011;41912;51.022;3.664;2024-03-23T13:22:09;10.07;;;3.15;;
56043;SDS011;41912;51.022;3.664;2024-03-23T13:24:36;9.82;;;2.08;;
56043;SDS011;41912;51.022;3.664;2024-03-23T13:27:02;10.65;;;2.60;;
56043;SDS011;41912;51.022;3.664;2024-03-23T13:29:29;12.50;;;2.83;;
56043;SDS011;41912;51.022;3.664;2024-03-23T13:31:55;11.20;;;1.98;;
56043;SDS011;41912;51.022;3.664;2024-03-23T13:34:20;12.48;;;2.63;;
56043;SDS011;41912;51.022;3.664;2024-03-23T13:36:46;9.98;;;2.78;;
56043;SDS011;41912;51.022;3.664;2024-03-23T13:39:12;7.38;;;3.08;;
56043;SDS011;41912;51.022;3.664;2024-03-23T13:41:44;10.43;;;2.42;;
56043;SDS011;41912;51.022;3.664;2024-03-23T13:44:11;6.88;;;2.33;;
56043;SDS011;41912;51.022;3.664;2024-03-23T13:46:39;9.50;;;2.17;;
56043;SDS011;41912;51.022;3.664;2024-03-23T13:49:05;9.13;;;2.30;;
56043;SDS011;41912;51.022;3.664;2024-03-23T13:51:31;9.43;;;1.98;;
56043;SDS011;41912;51.022;3.664;2024-03-23T13:53:57;6.97;;;1.85;;
56043;SDS011;41912;51.022;3.664;2024-03-23T13:56:26;12.02;;;2.17;;
56043;SDS011;41912;51.022;3.664;2024-03-23T13:58:53;7.65;;;1.60;;
56043;SDS011;41912;51.022;3.664;2024-03-23T14:01:23;8.65;;;2.15;;
56043;SDS011;41912;51.022;3.664;2024-03-23T14:03:49;7.82;;;1.63;;
56043;SDS011;41912;51.022;3.664;2024-03-23T14:06:15;9.25;;;1.73;;
56043;SDS011;41912;51.022;3.664;2024-03-23T14:08:40;4.82;;;1.20;;
56043;SDS011;41912;51.022;3.664;2024-03-23T14:11:08;9.77;;;2.13;;
56043;SDS011;41912;51.022;3.664;2024-03-23T14:13:34;8.50;;;1.70;;
56043;SDS011;41912;51.022;3.664;2024-03-23T14:16:00;9.05;;;1.88;;
56043;SDS011;41912;51.022;3.664;2024-03-23T14:18:26;9.93;;;1.65;;
56043;SDS011;41912;51.022;3.664;2024-03-23T14:20:55;10.45;;;2.00;;
56043;SDS011;41912;51.022;3.664;2024-03-23T14:23:23;9.38;;;1.85;;
56043;SDS011;41912;51.022;3.664;2024-03-23T14:25:55;11.60;;;2.00;;
56043;SDS011;41912;51.022;3.664;2024-03-23T14:28:21;8.38;;;1.98;;
56043;SDS011;41912;51.022;3.664;2024-03-23T14:30:51;7.78;;;1.88;;
56043;SDS011;41912;51.022;3.664;2024-03-23T14:33:20;10.95;;;1.80;;
56043;SDS011;41912;51.022;3.664;2024-03-23T14:35:52;9.98;;;1.80;;
56043;SDS011;41912;51.022;3.664;2024-03-23T14:38:22;9.98;;;1.70;;
56043;SDS011;41912;51.022;3.664;2024-03-23T14:40:48;9.57;;;1.88;;
56043;SDS011;41912;51.022;3.664;2024-03-23T14:43:14;9.38;;;2.00;;
56043;SDS011;41912;51.022;3.664;2024-03-23T14:48:34;8.43;;;2.13;;
56043;SDS011;41912;51.022;3.664;2024-03-23T14:51:01;10.55;;;2.05;;
56043;SDS011;41912;51.022;3.664;2024-03-23T14:53:30;7.88;;;1.30;;
56043;SDS011;41912;51.022;3.664;2024-03-23T14:56:07;7.75;;;2.10;;
56043;SDS011;41912;51.022;3.664;2024-03-23T14:58:34;13.60;;;2.13;;
56043;SDS011;41912;51.022;3.664;2024-03-23T15:01:06;15.40;;;2.53;;
56043;SDS011;41912;51.022;3.664;2024-03-23T15:03:36;12.20;;;1.83;;
56043;SDS011;41912;51.022;3.664;2024-03-23T15:06:05;10.85;;;2.38;;
56043;SDS011;41912;51.022;3.664;2024-03-23T15:08:31;15.25;;;2.30;;
56043;SDS011;41912;51.022;3.664;2024-03-23T15:11:00;7.32;;;1.70;;
56043;SDS011;41912;51.022;3.664;2024-03-23T15:13:30;11.25;;;2.00;;
56043;SDS011;41912;51.022;3.664;2024-03-23T15:15:59;7.63;;;1.98;;
56043;SDS011;41912;51.022;3.664;2024-03-23T15:18:25;10.27;;;2.00;;
56043;SDS011;41912;51.022;3.664;2024-03-23T15:20:52;9.80;;;2.30;;
56043;SDS011;41912;51.022;3.664;2024-03-23T15:23:18;9.60;;;2.00;;
56043;SDS011;41912;51.022;3.664;2024-03-23T15:25:43;13.10;;;2.28;;
56043;SDS011;41912;51.022;3.664;2024-03-23T15:28:09;6.80;;;1.90;;
56043;SDS011;41912;51.022;3.664;2024-03-23T15:30:34;8.82;;;2.15;;
56043;SDS011;41912;51.022;3.664;2024-03-23T15:33:00;11.60;;;2.00;;
56043;SDS011;41912;51.022;3.664;2024-03-23T15:35:27;11.32;;;2.15;;
56043;SDS011;41912;51.022;3.664;2024-03-23T15:37:53;6.82;;;1.30;;
56043;SDS011;41912;51.022;3.664;2024-03-23T15:40:18;13.35;;;2.38;;
56043;SDS011;41912;51.022;3.664;2024-03-23T15:42:44;6.22;;;1.60;;
56043;SDS011;41912;51.022;3.664;2024-03-23T15:45:10;12.13;;;1.80;;
56043;SDS011;41912;51.022;3.664;2024-03-23T15:47:36;10.57;;;1.67;;
56043;SDS011;41912;51.022;3.664;2024-03-23T15:50:02;12.75;;;2.30;;